sensor_id;sensor_type;location;lat;lon;timestamp;P1;durP1;ratioP1;P2;durP2;ratioP2
14100;SDS011;7127;49.372;8.166;2023-04-03T00:00:58;0.80;;;0.80;;
14100;SDS011;7127;49.372;8.166;2023-04-03T00:03:27;0.97;;;0.90;;
14100;SDS011;7127;49.372;8.166;2023-04-03T00:05:53;0.90;;;0.90;;
14100;SDS011;7127;49.372;8.166;2023-04-03T00:08:20;1.20;;;1.10;;
14100;SDS011;7127;49.372;8.166;2023-04-03T00:10:48;1.07;;;0.97;;
14100;SDS011;7127;49.372;8.166;2023-04-03T00:13:15;1.37;;;1.10;;
14100;SDS011;7127;49.372;8.166;2023-04-03T00:15:42;1.10;;;1.00;;
14100;SDS011;7127;49.372;8.166;2023-04-03T00:18:10;2.10;;;1.13;;
14100;SDS011;7127;49.372;8.166;2023-04-03T00:20:38;1.73;;;1.20;;
14100;SDS011;7127;49.372;8.166;2023-04-03T00:23:05;1.63;;;1.20;;
14100;SDS011;7127;49.372;8.166;2023-04-03T00:25:32;1.27;;;1.17;;
14100;SDS011;7127;49.372;8.166;2023-04-03T00:27:59;1.07;;;0.93;;
14100;SDS011;7127;49.372;8.166;2023-04-03T00:30:26;1.00;;;0.90;;
14100;SDS011;7127;49.372;8.166;2023-04-03T00:32:53;1.97;;;1.20;;
14100;SDS011;7127;49.372;8.166;2023-04-03T00:35:21;1.80;;;1.13;;
14100;SDS011;7127;49.372;8.166;2023-04-03T00:37:51;1.50;;;1.30;;
14100;SDS011;7127;49.372;8.166;2023-04-03T00:40:20;1.50;;;1.33;;
14100;SDS011;7127;49.372;8.166;2023-04-03T00:42:49;2.20;;;1.50;;
14100;SDS011;7127;49.372;8.166;2023-04-03T00:45:31;1.40;;;1.20;;
14100;SDS011;7127;49.372;8.166;2023-04-03T00:48:00;2.20;;;1.17;;
14100;SDS011;7127;49.372;8.166;2023-04-03T00:50:30;1.97;;;1.30;;
14100;SDS011;7127;49.372;8.166;2023-04-03T00:53:00;2.03;;;1.33;;
14100;SDS011;7127;49.372;8.166;2023-04-03T00:55:27;3.20;;;1.20;;
14100;SDS011;7127;49.372;8.166;2023-04-03T00:57:55;1.33;;;1.20;;
14100;SDS011;7127;49.372;8.166;2023-04-03T01:00:23;3.80;;;1.60;;
14100;SDS011;7127;49.372;8.166;2023-04-03T01:02:51;1.87;;;1.37;;
14100;SDS011;7127;49.372;8.166;2023-04-03T01:05:19;2.77;;;1.00;;
14100;SDS011;7127;49.372;8.166;2023-04-03T01:07:47;1.10;;;1.00;;
14100;SDS011;7127;49.372;8.166;2023-04-03T01:10:17;1.50;;;1.20;;
14100;SDS011;7127;49.372;8.166;2023-04-03T01:12:47;1.23;;;1.10;;
14100;SDS011;7127;49.372;8.166;2023-04-03T01:15:16;1.87;;;1.40;;
14100;SDS011;7127;49.372;8.166;2023-04-03T01:17:45;1.73;;;1.30;;
14100;SDS011;7127;49.372;8.166;2023-04-03T01:20:29;1.10;;;1.00;;
14100;SDS011;7127;49.372;8.166;2023-04-03T01:23:14;0.80;;;0.80;;
14100;SDS011;7127;49.372;8.166;2023-04-03T01:26:00;0.93;;;0.80;;
14100;SDS011;7127;49.372;8.166;2023-04-03T01:28:27;0.83;;;0.80;;
14100;SDS011;7127;49.372;8.166;2023-04-03T01:30:58;2.13;;;1.10;;
14100;SDS011;7127;49.372;8.166;2023-04-03T01:33:33;2.23;;;1.03;;
14100;SDS011;7127;49.372;8.166;2023-04-03T01:36:00;1.57;;;1.10;;
14100;SDS011;7127;49.372;8.166;2023-04-03T01:38:27;2.40;;;1.17;;
14100;SDS011;7127;49.372;8.166;2023-04-03T01:40:54;1.00;;;0.90;;
14100;SDS011;7127;49.372;8.166;2023-04-03T01:43:21;1.00;;;0.90;;
14100;SDS011;7127;49.372;8.166;2023-04-03T01:45:48;1.83;;;1.00;;
14100;SDS011;7127;49.372;8.166;2023-04-03T01:48:15;1.43;;;1.10;;
14100;SDS011;7127;49.372;8.166;2023-04-03T01:50:44;2.20;;;1.27;;
14100;SDS011;7127;49.372;8.166;2023-04-03T01:53:11;2.00;;;1.30;;
14100;SDS011;7127;49.372;8.166;2023-04-03T01:55:38;2.37;;;1.20;;
14100;SDS011;7127;49.372;8.166;2023-04-03T01:58:04;1.63;;;1.20;;
14100;SDS011;7127;49.372;8.166;2023-04-03T02:00:31;2.17;;;1.27;;
14100;SDS011;7127;49.372;8.166;2023-04-03T02:02:58;1.97;;;1.43;;
14100;SDS011;7127;49.372;8.166;2023-04-03T02:05:25;1.43;;;1.27;;
14100;SDS011;7127;49.372;8.166;2023-04-03T02:07:53;2.40;;;1.67;;
14100;SDS011;7127;49.372;8.166;2023-04-03T02:10:21;1.47;;;1.27;;
14100;SDS011;7127;49.372;8.166;2023-04-03T02:12:48;1.60;;;1.30;;
14100;SDS011;7127;49.372;8.166;2023-04-03T02:15:15;1.27;;;1.07;;
14100;SDS011;7127;49.372;8.166;2023-04-03T02:17:42;1.80;;;1.10;;
14100;SDS011;7127;49.372;8.166;2023-04-03T02:20:09;1.57;;;1.20;;
14100;SDS011;7127;49.372;8.166;2023-04-03T02:22:36;1.43;;;1.17;;
14100;SDS011;7127;49.372;8.166;2023-04-03T02:25:05;1.87;;;1.20;;
14100;SDS011;7127;49.372;8.166;2023-04-03T02:27:32;1.53;;;1.10;;
14100;SDS011;7127;49.372;8.166;2023-04-03T02:29:59;1.40;;;1.20;;
14100;SDS011;7127;49.372;8.166;2023-04-03T02:32:26;1.70;;;1.40;;
14100;SDS011;7127;49.372;8.166;2023-04-03T02:34:52;1.87;;;1.40;;
14100;SDS011;7127;49.372;8.166;2023-04-03T02:37:19;1.50;;;1.30;;
14100;SDS011;7127;49.372;8.166;2023-04-03T02:39:46;1.20;;;1.10;;
14100;SDS011;7127;49.372;8.166;2023-04-03T02:42:15;1.30;;;1.20;;
14100;SDS011;7127;49.372;8.166;2023-04-03T02:44:41;1.50;;;1.17;;
14100;SDS011;7127;49.372;8.166;2023-04-03T02:47:09;1.33;;;1.23;;
14100;SDS011;7127;49.372;8.166;2023-04-03T02:49:36;2.13;;;1.50;;
14100;SDS011;7127;49.372;8.166;2023-04-03T02:52:03;1.50;;;1.10;;
14100;SDS011;7127;49.372;8.166;2023-04-03T02:54:30;1.93;;;1.30;;
14100;SDS011;7127;49.372;8.166;2023-04-03T02:56:57;1.73;;;1.40;;
14100;SDS011;7127;49.372;8.166;2023-04-03T02:59:25;1.30;;;1.03;;
14100;SDS011;7127;49.372;8.166;2023-04-03T03:01:52;1.30;;;1.10;;
14100;SDS011;7127;49.372;8.166;2023-04-03T03:04:20;0.97;;;0.97;;
14100;SDS011;7127;49.372;8.166;2023-04-03T03:06:48;1.53;;;1.30;;
14100;SDS011;7127;49.372;8.166;2023-04-03T03:09:15;1.70;;;1.40;;
14100;SDS011;7127;49.372;8.166;2023-04-03T03:11:42;2.07;;;1.33;;
14100;SDS011;7127;49.372;8.166;2023-04-03T03:14:09;1.43;;;1.23;;
14100;SDS011;7127;49.372;8.166;2023-04-03T03:16:37;1.23;;;1.07;;
14100;SDS011;7127;49.372;8.166;2023-04-03T03:19:04;1.87;;;1.17;;
14100;SDS011;7127;49.372;8.166;2023-04-03T03:21:32;1.10;;;1.00;;
14100;SDS011;7127;49.372;8.166;2023-04-03T03:23:59;1.27;;;1.17;;
14100;SDS011;7127;49.372;8.166;2023-04-03T03:26:26;1.30;;;1.00;;
14100;SDS011;7127;49.372;8.166;2023-04-03T03:28:53;1.47;;;1.20;;
14100;SDS011;7127;49.372;8.166;2023-04-03T03:31:20;1.30;;;1.20;;
14100;SDS011;7127;49.372;8.166;2023-04-03T03:33:48;1.43;;;1.03;;
14100;SDS011;7127;49.372;8.166;2023-04-03T03:36:15;1.20;;;1.10;;
14100;SDS011;7127;49.372;8.166;2023-04-03T03:38:42;1.33;;;1.10;;
14100;SDS011;7127;49.372;8.166;2023-04-03T03:41:10;1.73;;;1.20;;
14100;SDS011;7127;49.372;8.166;2023-04-03T03:43:36;1.70;;;1.30;;
14100;SDS011;7127;49.372;8.166;2023-04-03T03:46:03;1.03;;;1.00;;
14100;SDS011;7127;49.372;8.166;2023-04-03T03:48:30;1.27;;;1.10;;
14100;SDS011;7127;49.372;8.166;2023-04-03T03:50:58;1.10;;;1.00;;
14100;SDS011;7127;49.372;8.166;2023-04-03T03:53:25;1.50;;;1.30;;
14100;SDS011;7127;49.372;8.166;2023-04-03T03:55:52;1.90;;;1.20;;
14100;SDS011;7127;49.372;8.166;2023-04-03T03:58:19;1.60;;;1.20;;
14100;SDS011;7127;49.372;8.166;2023-04-03T04:00:46;1.00;;;0.90;;
14100;SDS011;7127;49.372;8.166;2023-04-03T04:03:13;1.20;;;1.10;;
14100;SDS011;7127;49.372;8.166;2023-04-03T04:05:40;1.63;;;1.10;;
14100;SDS011;7127;49.372;8.166;2023-04-03T04:08:08;2.53;;;1.30;;
14100;SDS011;7127;49.372;8.166;2023-04-03T04:10:35;2.53;;;1.50;;
14100;SDS011;7127;49.372;8.166;2023-04-03T04:13:04;1.20;;;1.10;;
14100;SDS011;7127;49.372;8.166;2023-04-03T04:15:31;2.00;;;1.50;;
14100;SDS011;7127;49.372;8.166;2023-04-03T04:17:57;2.77;;;1.40;;
14100;SDS011;7127;49.372;8.166;2023-04-03T04:20:24;2.30;;;1.40;;
14100;SDS011;7127;49.372;8.166;2023-04-03T04:22:51;2.07;;;1.30;;
14100;SDS011;7127;49.372;8.166;2023-04-03T04:25:20;2.50;;;1.40;;
14100;SDS011;7127;49.372;8.166;2023-04-03T04:27:47;2.67;;;1.20;;
14100;SDS011;7127;49.372;8.166;2023-04-03T04:30:14;1.43;;;1.10;;
14100;SDS011;7127;49.372;8.166;2023-04-03T04:32:41;2.20;;;1.17;;
14100;SDS011;7127;49.372;8.166;2023-04-03T04:35:08;1.60;;;1.23;;
14100;SDS011;7127;49.372;8.166;2023-04-03T04:37:34;1.23;;;1.13;;
14100;SDS011;7127;49.372;8.166;2023-04-03T04:40:01;1.10;;;0.93;;
14100;SDS011;7127;49.372;8.166;2023-04-03T04:42:29;0.80;;;0.80;;
14100;SDS011;7127;49.372;8.166;2023-04-03T04:44:56;1.43;;;1.10;;
14100;SDS011;7127;49.372;8.166;2023-04-03T04:47:23;1.30;;;1.00;;
14100;SDS011;7127;49.372;8.166;2023-04-03T04:49:50;1.50;;;1.40;;
14100;SDS011;7127;49.372;8.166;2023-04-03T04:52:18;1.50;;;0.97;;
14100;SDS011;7127;49.372;8.166;2023-04-03T04:54:45;1.30;;;1.10;;
14100;SDS011;7127;49.372;8.166;2023-04-03T04:57:12;1.10;;;1.00;;
14100;SDS011;7127;49.372;8.166;2023-04-03T04:59:40;1.37;;;1.10;;
14100;SDS011;7127;49.372;8.166;2023-04-03T05:02:07;1.17;;;0.90;;
14100;SDS011;7127;49.372;8.166;2023-04-03T05:04:34;1.13;;;0.97;;
14100;SDS011;7127;49.372;8.166;2023-04-03T05:07:01;0.87;;;0.87;;
14100;SDS011;7127;49.372;8.166;2023-04-03T05:09:28;0.90;;;0.87;;
14100;SDS011;7127;49.372;8.166;2023-04-03T05:11:55;2.10;;;1.10;;
14100;SDS011;7127;49.372;8.166;2023-04-03T05:14:22;1.77;;;1.00;;
14100;SDS011;7127;49.372;8.166;2023-04-03T05:16:50;0.90;;;0.90;;
14100;SDS011;7127;49.372;8.166;2023-04-03T05:19:18;1.10;;;1.00;;
14100;SDS011;7127;49.372;8.166;2023-04-03T05:21:46;1.63;;;1.00;;
14100;SDS011;7127;49.372;8.166;2023-04-03T05:24:13;1.13;;;0.90;;
14100;SDS011;7127;49.372;8.166;2023-04-03T05:26:41;1.13;;;1.00;;
14100;SDS011;7127;49.372;8.166;2023-04-03T05:29:07;1.37;;;0.93;;
14100;SDS011;7127;49.372;8.166;2023-04-03T05:31:35;1.23;;;1.00;;
14100;SDS011;7127;49.372;8.166;2023-04-03T05:34:03;0.80;;;0.80;;
14100;SDS011;7127;49.372;8.166;2023-04-03T05:36:30;1.20;;;0.90;;
14100;SDS011;7127;49.372;8.166;2023-04-03T05:38:57;1.80;;;1.10;;
14100;SDS011;7127;49.372;8.166;2023-04-03T05:41:24;1.37;;;0.90;;
14100;SDS011;7127;49.372;8.166;2023-04-03T05:43:51;1.37;;;1.10;;
14100;SDS011;7127;49.372;8.166;2023-04-03T05:46:18;1.70;;;1.20;;
14100;SDS011;7127;49.372;8.166;2023-04-03T05:48:47;1.30;;;1.00;;
14100;SDS011;7127;49.372;8.166;2023-04-03T05:51:16;1.50;;;1.03;;
14100;SDS011;7127;49.372;8.166;2023-04-03T05:53:45;1.70;;;1.07;;
14100;SDS011;7127;49.372;8.166;2023-04-03T05:56:13;1.47;;;0.90;;
14100;SDS011;7127;49.372;8.166;2023-04-03T05:58:40;2.23;;;1.10;;
14100;SDS011;7127;49.372;8.166;2023-04-03T06:01:07;1.70;;;1.20;;
14100;SDS011;7127;49.372;8.166;2023-04-03T06:03:34;1.80;;;1.10;;
14100;SDS011;7127;49.372;8.166;2023-04-03T06:06:02;2.03;;;1.30;;
14100;SDS011;7127;49.372;8.166;2023-04-03T06:08:31;1.33;;;1.13;;
14100;SDS011;7127;49.372;8.166;2023-04-03T06:10:59;1.67;;;1.13;;
14100;SDS011;7127;49.372;8.166;2023-04-03T06:13:27;1.83;;;1.20;;
14100;SDS011;7127;49.372;8.166;2023-04-03T06:15:54;1.40;;;1.10;;
14100;SDS011;7127;49.372;8.166;2023-04-03T06:18:21;1.77;;;1.20;;
14100;SDS011;7127;49.372;8.166;2023-04-03T06:20:48;1.23;;;1.07;;
14100;SDS011;7127;49.372;8.166;2023-04-03T06:23:15;2.10;;;1.30;;
14100;SDS011;7127;49.372;8.166;2023-04-03T06:25:43;1.70;;;1.10;;
14100;SDS011;7127;49.372;8.166;2023-04-03T06:28:11;2.30;;;1.10;;
14100;SDS011;7127;49.372;8.166;2023-04-03T06:30:38;1.10;;;1.00;;
14100;SDS011;7127;49.372;8.166;2023-04-03T06:33:04;2.03;;;1.50;;
14100;SDS011;7127;49.372;8.166;2023-04-03T06:35:31;1.53;;;1.30;;
14100;SDS011;7127;49.372;8.166;2023-04-03T06:37:59;1.87;;;1.20;;
14100;SDS011;7127;49.372;8.166;2023-04-03T06:40:26;1.70;;;1.60;;
14100;SDS011;7127;49.372;8.166;2023-04-03T06:42:56;1.97;;;1.53;;
14100;SDS011;7127;49.372;8.166;2023-04-03T06:45:23;2.33;;;1.33;;
14100;SDS011;7127;49.372;8.166;2023-04-03T06:47:50;2.33;;;1.43;;
14100;SDS011;7127;49.372;8.166;2023-04-03T06:50:17;2.07;;;1.50;;
14100;SDS011;7127;49.372;8.166;2023-04-03T06:52:44;2.03;;;1.40;;
14100;SDS011;7127;49.372;8.166;2023-04-03T06:55:11;1.37;;;1.13;;
14100;SDS011;7127;49.372;8.166;2023-04-03T06:57:38;2.30;;;1.50;;
14100;SDS011;7127;49.372;8.166;2023-04-03T07:00:07;2.50;;;1.50;;
14100;SDS011;7127;49.372;8.166;2023-04-03T07:02:35;2.10;;;1.40;;
14100;SDS011;7127;49.372;8.166;2023-04-03T07:05:02;2.37;;;1.40;;
14100;SDS011;7127;49.372;8.166;2023-04-03T07:07:31;2.93;;;1.40;;
14100;SDS011;7127;49.372;8.166;2023-04-03T07:09:59;2.27;;;1.50;;
14100;SDS011;7127;49.372;8.166;2023-04-03T07:12:26;1.90;;;1.50;;
14100;SDS011;7127;49.372;8.166;2023-04-03T07:14:52;1.27;;;1.17;;
14100;SDS011;7127;49.372;8.166;2023-04-03T07:17:21;2.60;;;1.50;;
14100;SDS011;7127;49.372;8.166;2023-04-03T07:19:48;1.87;;;1.57;;
14100;SDS011;7127;49.372;8.166;2023-04-03T07:22:15;1.97;;;1.40;;
14100;SDS011;7127;49.372;8.166;2023-04-03T07:24:42;1.70;;;1.30;;
14100;SDS011;7127;49.372;8.166;2023-04-03T07:27:09;2.50;;;1.40;;
14100;SDS011;7127;49.372;8.166;2023-04-03T07:29:37;2.47;;;1.50;;
14100;SDS011;7127;49.372;8.166;2023-04-03T07:32:05;2.40;;;1.50;;
14100;SDS011;7127;49.372;8.166;2023-04-03T07:34:33;3.17;;;1.73;;
14100;SDS011;7127;49.372;8.166;2023-04-03T07:37:00;1.50;;;1.40;;
14100;SDS011;7127;49.372;8.166;2023-04-03T07:39:28;2.10;;;1.30;;
14100;SDS011;7127;49.372;8.166;2023-04-03T07:41:55;1.90;;;1.33;;
14100;SDS011;7127;49.372;8.166;2023-04-03T07:44:22;3.10;;;1.40;;
14100;SDS011;7127;49.372;8.166;2023-04-03T07:46:49;2.77;;;1.60;;
14100;SDS011;7127;49.372;8.166;2023-04-03T07:49:16;3.03;;;1.80;;
14100;SDS011;7127;49.372;8.166;2023-04-03T07:51:45;3.50;;;1.30;;
14100;SDS011;7127;49.372;8.166;2023-04-03T07:54:13;1.70;;;1.50;;
14100;SDS011;7127;49.372;8.166;2023-04-03T07:56:40;1.77;;;1.50;;
14100;SDS011;7127;49.372;8.166;2023-04-03T07:59:07;2.10;;;1.30;;
14100;SDS011;7127;49.372;8.166;2023-04-03T08:01:35;2.90;;;1.40;;
14100;SDS011;7127;49.372;8.166;2023-04-03T08:04:09;2.23;;;1.60;;
14100;SDS011;7127;49.372;8.166;2023-04-03T08:06:55;2.33;;;1.70;;
14100;SDS011;7127;49.372;8.166;2023-04-03T08:09:29;1.90;;;1.37;;
14100;SDS011;7127;49.372;8.166;2023-04-03T08:12:09;1.47;;;1.37;;
14100;SDS011;7127;49.372;8.166;2023-04-03T08:14:36;2.70;;;1.50;;
14100;SDS011;7127;49.372;8.166;2023-04-03T08:17:04;2.30;;;1.70;;
14100;SDS011;7127;49.372;8.166;2023-04-03T08:19:34;1.90;;;1.60;;
14100;SDS011;7127;49.372;8.166;2023-04-03T08:22:03;2.20;;;1.47;;
14100;SDS011;7127;49.372;8.166;2023-04-03T08:24:31;2.10;;;1.50;;
14100;SDS011;7127;49.372;8.166;2023-04-03T08:26:59;3.40;;;1.60;;
14100;SDS011;7127;49.372;8.166;2023-04-03T08:29:26;4.00;;;1.50;;
14100;SDS011;7127;49.372;8.166;2023-04-03T08:31:54;2.27;;;1.40;;
14100;SDS011;7127;49.372;8.166;2023-04-03T08:34:21;3.40;;;1.50;;
14100;SDS011;7127;49.372;8.166;2023-04-03T08:36:48;1.97;;;1.50;;
14100;SDS011;7127;49.372;8.166;2023-04-03T08:39:16;3.30;;;1.80;;
14100;SDS011;7127;49.372;8.166;2023-04-03T08:41:44;2.40;;;1.40;;
14100;SDS011;7127;49.372;8.166;2023-04-03T08:44:14;2.47;;;1.70;;
14100;SDS011;7127;49.372;8.166;2023-04-03T08:46:58;3.33;;;1.57;;
14100;SDS011;7127;49.372;8.166;2023-04-03T08:49:31;2.27;;;1.43;;
14100;SDS011;7127;49.372;8.166;2023-04-03T08:52:01;3.43;;;1.70;;
14100;SDS011;7127;49.372;8.166;2023-04-03T08:54:33;2.07;;;1.60;;
14100;SDS011;7127;49.372;8.166;2023-04-03T08:57:04;2.67;;;1.63;;
14100;SDS011;7127;49.372;8.166;2023-04-03T08:59:32;2.37;;;1.20;;
14100;SDS011;7127;49.372;8.166;2023-04-03T09:02:02;1.80;;;1.40;;
14100;SDS011;7127;49.372;8.166;2023-04-03T09:04:43;1.60;;;1.30;;
14100;SDS011;7127;49.372;8.166;2023-04-03T09:07:13;1.50;;;1.30;;
14100;SDS011;7127;49.372;8.166;2023-04-03T09:09:43;1.70;;;1.10;;
14100;SDS011;7127;49.372;8.166;2023-04-03T09:12:15;1.43;;;1.20;;
14100;SDS011;7127;49.372;8.166;2023-04-03T09:14:51;1.90;;;1.20;;
14100;SDS011;7127;49.372;8.166;2023-04-03T09:17:26;1.60;;;1.20;;
14100;SDS011;7127;49.372;8.166;2023-04-03T09:20:04;2.40;;;1.30;;
14100;SDS011;7127;49.372;8.166;2023-04-03T09:22:37;2.05;;;1.10;;
14100;SDS011;7127;49.372;8.166;2023-04-03T09:25:10;1.30;;;1.00;;
14100;SDS011;7127;49.372;8.166;2023-04-03T09:27:42;1.53;;;0.90;;
14100;SDS011;7127;49.372;8.166;2023-04-03T09:30:12;1.73;;;1.10;;
14100;SDS011;7127;49.372;8.166;2023-04-03T09:32:41;0.87;;;0.83;;
14100;SDS011;7127;49.372;8.166;2023-04-03T09:35:15;1.73;;;1.00;;
14100;SDS011;7127;49.372;8.166;2023-04-03T09:37:45;1.50;;;0.90;;
14100;SDS011;7127;49.372;8.166;2023-04-03T09:45:51;1.93;;;1.13;;
14100;SDS011;7127;49.372;8.166;2023-04-03T09:48:26;1.73;;;0.97;;
14100;SDS011;7127;49.372;8.166;2023-04-03T09:50:56;1.40;;;0.97;;
14100;SDS011;7127;49.372;8.166;2023-04-03T09:53:26;2.70;;;0.90;;
14100;SDS011;7127;49.372;8.166;2023-04-03T09:55:57;1.53;;;0.90;;
14100;SDS011;7127;49.372;8.166;2023-04-03T09:58:27;1.20;;;1.00;;
14100;SDS011;7127;49.372;8.166;2023-04-03T10:00:56;1.20;;;1.00;;
14100;SDS011;7127;49.372;8.166;2023-04-03T10:03:26;3.13;;;1.10;;
14100;SDS011;7127;49.372;8.166;2023-04-03T10:05:55;1.13;;;0.87;;
14100;SDS011;7127;49.372;8.166;2023-04-03T10:08:24;1.00;;;0.90;;
14100;SDS011;7127;49.372;8.166;2023-04-03T10:11:08;1.13;;;1.00;;
14100;SDS011;7127;49.372;8.166;2023-04-03T10:13:42;1.83;;;0.90;;
14100;SDS011;7127;49.372;8.166;2023-04-03T10:16:17;2.30;;;1.20;;
14100;SDS011;7127;49.372;8.166;2023-04-03T10:18:47;1.90;;;1.00;;
14100;SDS011;7127;49.372;8.166;2023-04-03T10:21:23;2.00;;;1.20;;
14100;SDS011;7127;49.372;8.166;2023-04-03T10:24:02;2.43;;;1.07;;
14100;SDS011;7127;49.372;8.166;2023-04-03T10:26:39;2.30;;;1.10;;
14100;SDS011;7127;49.372;8.166;2023-04-03T10:29:17;1.60;;;1.00;;
14100;SDS011;7127;49.372;8.166;2023-04-03T10:31:55;1.60;;;0.80;;
14100;SDS011;7127;49.372;8.166;2023-04-03T10:34:30;2.60;;;1.03;;
14100;SDS011;7127;49.372;8.166;2023-04-03T10:37:03;2.60;;;1.00;;
14100;SDS011;7127;49.372;8.166;2023-04-03T10:39:37;1.67;;;1.00;;
14100;SDS011;7127;49.372;8.166;2023-04-03T10:42:14;2.30;;;0.90;;
14100;SDS011;7127;49.372;8.166;2023-04-03T10:44:52;1.53;;;1.00;;
14100;SDS011;7127;49.372;8.166;2023-04-03T10:47:36;2.90;;;1.13;;
14100;SDS011;7127;49.372;8.166;2023-04-03T10:50:20;2.63;;;1.20;;
14100;SDS011;7127;49.372;8.166;2023-04-03T10:52:55;2.47;;;1.10;;
14100;SDS011;7127;49.372;8.166;2023-04-03T10:55:30;1.23;;;0.90;;
14100;SDS011;7127;49.372;8.166;2023-04-03T10:58:03;1.87;;;1.00;;
14100;SDS011;7127;49.372;8.166;2023-04-03T11:00:34;1.27;;;0.80;;
14100;SDS011;7127;49.372;8.166;2023-04-03T11:03:05;1.10;;;0.80;;
14100;SDS011;7127;49.372;8.166;2023-04-03T11:05:39;1.73;;;0.90;;
14100;SDS011;7127;49.372;8.166;2023-04-03T11:08:10;0.60;;;0.60;;
14100;SDS011;7127;49.372;8.166;2023-04-03T11:10:44;1.30;;;0.83;;
14100;SDS011;7127;49.372;8.166;2023-04-03T11:13:15;1.33;;;0.90;;
14100;SDS011;7127;49.372;8.166;2023-04-03T11:15:48;1.57;;;1.00;;
14100;SDS011;7127;49.372;8.166;2023-04-03T11:18:17;2.07;;;1.07;;
14100;SDS011;7127;49.372;8.166;2023-04-03T11:20:50;2.40;;;1.10;;
14100;SDS011;7127;49.372;8.166;2023-04-03T11:23:23;1.77;;;0.93;;
14100;SDS011;7127;49.372;8.166;2023-04-03T11:25:53;1.20;;;1.00;;
14100;SDS011;7127;49.372;8.166;2023-04-03T11:28:25;1.47;;;0.87;;
14100;SDS011;7127;49.372;8.166;2023-04-03T11:30:54;1.70;;;0.73;;
14100;SDS011;7127;49.372;8.166;2023-04-03T11:33:31;1.77;;;0.90;;
14100;SDS011;7127;49.372;8.166;2023-04-03T11:36:07;1.20;;;0.83;;
14100;SDS011;7127;49.372;8.166;2023-04-03T11:38:38;2.00;;;0.87;;
14100;SDS011;7127;49.372;8.166;2023-04-03T11:41:08;0.93;;;0.70;;
14100;SDS011;7127;49.372;8.166;2023-04-03T11:43:41;1.60;;;1.00;;
14100;SDS011;7127;49.372;8.166;2023-04-03T11:46:22;1.70;;;1.10;;
14100;SDS011;7127;49.372;8.166;2023-04-03T11:48:50;2.20;;;1.03;;
14100;SDS011;7127;49.372;8.166;2023-04-03T11:51:40;1.07;;;0.60;;
14100;SDS011;7127;49.372;8.166;2023-04-03T12:03:32;1.17;;;0.90;;
14100;SDS011;7127;49.372;8.166;2023-04-03T12:09:23;1.33;;;0.80;;
14100;SDS011;7127;49.372;8.166;2023-04-03T12:11:56;0.93;;;0.87;;
14100;SDS011;7127;49.372;8.166;2023-04-03T12:14:25;2.17;;;1.07;;
14100;SDS011;7127;49.372;8.166;2023-04-03T12:16:55;3.10;;;0.97;;
14100;SDS011;7127;49.372;8.166;2023-04-03T12:19:29;1.07;;;0.80;;
14100;SDS011;7127;49.372;8.166;2023-04-03T12:22:10;1.07;;;0.70;;
14100;SDS011;7127;49.372;8.166;2023-04-03T12:24:39;1.33;;;0.80;;
14100;SDS011;7127;49.372;8.166;2023-04-03T12:30:07;1.23;;;0.83;;
14100;SDS011;7127;49.372;8.166;2023-04-03T12:32:51;1.00;;;0.90;;
14100;SDS011;7127;49.372;8.166;2023-04-03T12:35:30;2.07;;;0.80;;
14100;SDS011;7127;49.372;8.166;2023-04-03T12:38:17;0.90;;;0.80;;
14100;SDS011;7127;49.372;8.166;2023-04-03T12:41:03;1.27;;;0.80;;
14100;SDS011;7127;49.372;8.166;2023-04-03T12:43:43;1.10;;;0.80;;
14100;SDS011;7127;49.372;8.166;2023-04-03T12:46:17;0.60;;;0.60;;
14100;SDS011;7127;49.372;8.166;2023-04-03T12:48:50;0.50;;;0.50;;
14100;SDS011;7127;49.372;8.166;2023-04-03T12:51:20;2.17;;;0.97;;
14100;SDS011;7127;49.372;8.166;2023-04-03T12:53:52;0.73;;;0.50;;
14100;SDS011;7127;49.372;8.166;2023-04-03T12:56:25;0.90;;;0.73;;
14100;SDS011;7127;49.372;8.166;2023-04-03T12:58:55;0.93;;;0.83;;
14100;SDS011;7127;49.372;8.166;2023-04-03T13:01:38;1.10;;;0.80;;
14100;SDS011;7127;49.372;8.166;2023-04-03T13:04:07;0.77;;;0.50;;
14100;SDS011;7127;49.372;8.166;2023-04-03T13:06:38;1.00;;;0.70;;
14100;SDS011;7127;49.372;8.166;2023-04-03T13:09:14;0.80;;;0.70;;
14100;SDS011;7127;49.372;8.166;2023-04-03T13:11:47;1.50;;;1.00;;
14100;SDS011;7127;49.372;8.166;2023-04-03T13:14:16;0.73;;;0.60;;
14100;SDS011;7127;49.372;8.166;2023-04-03T13:16:52;1.10;;;0.90;;
14100;SDS011;7127;49.372;8.166;2023-04-03T13:19:22;1.23;;;0.90;;
14100;SDS011;7127;49.372;8.166;2023-04-03T13:21:50;0.90;;;0.70;;
14100;SDS011;7127;49.372;8.166;2023-04-03T13:24:23;1.20;;;0.80;;
14100;SDS011;7127;49.372;8.166;2023-04-03T13:26:51;2.43;;;0.70;;
14100;SDS011;7127;49.372;8.166;2023-04-03T13:29:21;0.90;;;0.70;;
14100;SDS011;7127;49.372;8.166;2023-04-03T13:31:52;2.43;;;0.77;;
14100;SDS011;7127;49.372;8.166;2023-04-03T13:34:22;1.63;;;1.00;;
14100;SDS011;7127;49.372;8.166;2023-04-03T13:36:56;0.93;;;0.70;;
14100;SDS011;7127;49.372;8.166;2023-04-03T13:39:25;1.20;;;0.90;;
14100;SDS011;7127;49.372;8.166;2023-04-03T13:41:54;2.30;;;0.90;;
14100;SDS011;7127;49.372;8.166;2023-04-03T13:44:29;1.97;;;0.90;;
14100;SDS011;7127;49.372;8.166;2023-04-03T13:46:58;1.60;;;0.90;;
14100;SDS011;7127;49.372;8.166;2023-04-03T13:49:30;1.63;;;0.80;;
14100;SDS011;7127;49.372;8.166;2023-04-03T13:51:59;2.87;;;1.10;;
14100;SDS011;7127;49.372;8.166;2023-04-03T13:54:29;1.20;;;0.90;;
14100;SDS011;7127;49.372;8.166;2023-04-03T13:56:59;1.77;;;1.00;;
14100;SDS011;7127;49.372;8.166;2023-04-03T13:59:27;1.70;;;0.90;;
14100;SDS011;7127;49.372;8.166;2023-04-03T14:02:09;1.40;;;1.00;;
14100;SDS011;7127;49.372;8.166;2023-04-03T14:04:49;4.70;;;1.00;;
14100;SDS011;7127;49.372;8.166;2023-04-03T14:07:21;1.13;;;0.70;;
14100;SDS011;7127;49.372;8.166;2023-04-03T14:09:49;1.93;;;1.10;;
14100;SDS011;7127;49.372;8.166;2023-04-03T14:12:17;1.27;;;1.00;;
14100;SDS011;7127;49.372;8.166;2023-04-03T14:14:47;1.60;;;0.90;;
14100;SDS011;7127;49.372;8.166;2023-04-03T14:17:15;1.20;;;0.90;;
14100;SDS011;7127;49.372;8.166;2023-04-03T14:19:43;1.80;;;1.10;;
14100;SDS011;7127;49.372;8.166;2023-04-03T14:22:16;1.67;;;1.13;;
14100;SDS011;7127;49.372;8.166;2023-04-03T14:24:44;0.80;;;0.80;;
14100;SDS011;7127;49.372;8.166;2023-04-03T14:27:15;0.97;;;0.80;;
14100;SDS011;7127;49.372;8.166;2023-04-03T14:29:45;1.20;;;0.90;;
14100;SDS011;7127;49.372;8.166;2023-04-03T14:32:12;1.93;;;1.20;;
14100;SDS011;7127;49.372;8.166;2023-04-03T14:34:40;1.17;;;0.90;;
14100;SDS011;7127;49.372;8.166;2023-04-03T14:37:09;1.47;;;1.00;;
14100;SDS011;7127;49.372;8.166;2023-04-03T14:39:39;1.73;;;1.10;;
14100;SDS011;7127;49.372;8.166;2023-04-03T14:42:06;0.90;;;0.67;;
14100;SDS011;7127;49.372;8.166;2023-04-03T14:44:38;1.37;;;0.90;;
14100;SDS011;7127;49.372;8.166;2023-04-03T14:47:08;1.03;;;0.90;;
14100;SDS011;7127;49.372;8.166;2023-04-03T14:49:36;1.47;;;1.00;;
14100;SDS011;7127;49.372;8.166;2023-04-03T14:52:03;0.70;;;0.50;;
14100;SDS011;7127;49.372;8.166;2023-04-03T14:54:30;0.73;;;0.67;;
14100;SDS011;7127;49.372;8.166;2023-04-03T14:56:59;1.57;;;1.00;;
14100;SDS011;7127;49.372;8.166;2023-04-03T14:59:27;2.20;;;0.90;;
14100;SDS011;7127;49.372;8.166;2023-04-03T15:01:55;1.93;;;1.20;;
14100;SDS011;7127;49.372;8.166;2023-04-03T15:04:21;0.97;;;0.83;;
14100;SDS011;7127;49.372;8.166;2023-04-03T15:06:48;1.47;;;1.00;;
14100;SDS011;7127;49.372;8.166;2023-04-03T15:09:19;1.60;;;1.10;;
14100;SDS011;7127;49.372;8.166;2023-04-03T15:11:47;1.70;;;1.10;;
14100;SDS011;7127;49.372;8.166;2023-04-03T15:14:16;1.27;;;0.90;;
14100;SDS011;7127;49.372;8.166;2023-04-03T15:16:42;1.67;;;1.07;;
14100;SDS011;7127;49.372;8.166;2023-04-03T15:19:10;1.70;;;1.00;;
14100;SDS011;7127;49.372;8.166;2023-04-03T15:21:37;1.20;;;0.90;;
14100;SDS011;7127;49.372;8.166;2023-04-03T15:24:04;1.33;;;0.90;;
14100;SDS011;7127;49.372;8.166;2023-04-03T15:26:31;0.80;;;0.70;;
14100;SDS011;7127;49.372;8.166;2023-04-03T15:28:59;1.13;;;0.80;;
14100;SDS011;7127;49.372;8.166;2023-04-03T15:31:27;1.07;;;0.93;;
14100;SDS011;7127;49.372;8.166;2023-04-03T15:33:54;0.70;;;0.70;;
14100;SDS011;7127;49.372;8.166;2023-04-03T15:36:21;1.43;;;0.80;;